Time;durP1;ratioP1;P1;durP2;ratioP2;P2;SDS_P1;SDS_P2;PMS_P1;PMS_P2;Temp;Humidity;BMP_temperature;BMP_pressure;BME280_temperature;BME280_humidity;BME280_pressure;Samples;Min_cycle;Max_cycle;Signal;HPM_P1;HPM_P2
2024/03/21 00:08:29;;;;;;;;;;;11.50;99.90;;;;;;6637974;89;20084;-81
2024/03/21 00:18:30;;;;;;;;;;;11.50;99.90;;;;;;6639568;89;20054;-81
2024/03/21 00:28:30;;;;;;;;;;;11.20;99.90;;;;;;6641469;89;20079;-82
2024/03/21 00:38:31;;;;;;;;;;;11.20;99.90;;;;;;6642656;89;20131;-81
2024/03/21 00:48:31;;;;;;;;;;;11.00;99.90;;;;;;6647913;77;20061;-78
2024/03/21 00:58:31;;;;;;;;;;;11.00;99.90;;;;;;6639402;88;20563;-76
2024/03/21 01:08:32;;;;;;;;;;;10.90;99.90;;;;;;6651194;88;20147;-75
2024/03/21 01:18:35;;;;;;;;;;;10.70;99.90;;;;;;6634264;88;20505;-76
2024/03/21 01:28:36;;;;;;;;;;;10.80;99.90;;;;;;6642510;88;20112;-77
2024/03/21 01:38:37;;;;;;;;;;;10.60;99.90;;;;;;6635419;88;20079;-75
2024/03/21 01:48:38;;;;;;;;;;;10.60;99.90;;;;;;6647330;88;20054;-77
2024/03/21 01:58:38;;;;;;;;;;;10.40;99.90;;;;;;6640076;88;20099;-76
2024/03/21 02:08:39;;;;;;;;;;;10.30;99.90;;;;;;6636591;88;20118;-76
2024/03/21 02:29:05;;;;;;;;;;;10.30;99.90;;;;;;6638687;88;20050;-76
2024/03/21 02:39:06;;;;;;;;;;;10.30;99.90;;;;;;6631532;88;20083;-76
2024/03/21 02:49:07;;;;;;;;;;;10.30;99.90;;;;;;6634386;88;20775;-77
2024/03/21 02:59:07;;;;;;;;;;;10.30;99.90;;;;;;6637393;88;20130;-78
2024/03/21 03:09:08;;;;;;;;;;;10.30;99.90;;;;;;6636358;88;20113;-78
2024/03/21 03:19:08;;;;;;;;;;;10.20;99.90;;;;;;6635046;88;20541;-75
2024/03/21 03:29:09;;;;;;;;;;;10.20;99.90;;;;;;6631684;88;20110;-77
2024/03/21 03:39:09;;;;;;;;;;;10.30;99.90;;;;;;6629336;88;20065;-76
2024/03/21 03:49:10;;;;;;;;;;;10.20;99.90;;;;;;6633302;88;20194;-77
2024/03/21 03:59:11;;;;;;;;;;;10.00;99.90;;;;;;6632858;88;20054;-77
2024/03/21 04:09:11;;;;;;;;;;;10.10;99.90;;;;;;6637466;88;20055;-77
2024/03/21 04:19:11;;;;;;;;;;;10.20;99.90;;;;;;6632567;88;20058;-77
2024/03/21 04:29:12;;;;;;;;;;;10.20;99.90;;;;;;6631110;88;20183;-77
2024/03/21 04:39:12;;;;;;;;;;;10.50;99.90;;;;;;6630761;88;20062;-76
2024/03/21 04:49:13;;;;;;;;;;;11.00;99.90;;;;;;6629838;88;20058;-78
2024/03/21 04:59:13;;;;;;;;;;;11.10;99.90;;;;;;6636134;88;20080;-76
2024/03/21 05:09:14;;;;;;;;;;;11.20;99.90;;;;;;6629456;88;20057;-77
2024/03/21 05:19:15;;;;;;;;;;;11.20;99.90;;;;;;6631697;88;20577;-76
2024/03/21 05:29:15;;;;;;;;;;;11.40;99.90;;;;;;6628904;88;20117;-76
2024/03/21 05:39:16;;;;;;;;;;;11.50;99.90;;;;;;6633275;88;20479;-77
2024/03/21 05:49:16;;;;;;;;;;;11.40;99.90;;;;;;6636033;88;20068;-77
2024/03/21 05:59:17;;;;;;;;;;;11.40;99.90;;;;;;6630846;88;20088;-77
2024/03/21 06:09:21;;;;;;;;;;;11.50;99.90;;;;;;6636568;88;20065;-78
2024/03/21 06:19:22;;;;;;;;;;;11.50;99.90;;;;;;6633335;88;20070;-77
2024/03/21 06:29:27;;;;;;;;;;;11.60;99.90;;;;;;6638953;88;20088;-77
2024/03/21 06:39:27;;;;;;;;;;;11.70;99.90;;;;;;6639369;88;20058;-77
2024/03/21 06:49:28;;;;;;;;;;;11.90;99.90;;;;;;6639388;88;20103;-75
2024/03/21 06:59:29;;;;;;;;;;;11.90;99.90;;;;;;6626285;89;20097;-76
2024/03/21 07:09:29;;;;;;;;;;;11.90;99.90;;;;;;6652528;88;20552;-74
2024/03/21 07:19:36;;;;;;;;;;;12.00;99.90;;;;;;6661914;88;20051;-76
2024/03/21 07:29:36;;;;;;;;;;;12.00;99.90;;;;;;6631454;89;20766;-76
2024/03/21 07:39:37;;;;;;;;;;;12.10;99.90;;;;;;6633039;88;20124;-80
2024/03/21 07:49:38;;;;;;;;;;;12.20;99.90;;;;;;6636752;88;20135;-78
2024/03/21 07:59:38;;;;;;;;;;;12.40;99.90;;;;;;6635859;88;20127;-75
2024/03/21 08:09:39;;;;;;;;;;;12.70;99.90;;;;;;6622146;89;20607;-76
2024/03/21 08:19:42;;;;;;;;;;;12.80;99.90;;;;;;6618140;89;20097;-75
2024/03/21 08:29:43;;;;;;;;;;;13.10;99.90;;;;;;6613011;88;20066;-75
2024/03/21 08:39:43;;;;;;;;;;;13.00;99.90;;;;;;6613556;89;20058;-76
2024/03/21 08:49:44;;;;;;;;;;;12.90;99.90;;;;;;6613218;89;20538;-76
2024/03/21 08:59:44;;;;;;;;;;;13.10;99.90;;;;;;6612886;89;20067;-76
2024/03/21 09:09:45;;;;;;;;;;;13.10;99.90;;;;;;6682988;88;20246;-78
2024/03/21 09:19:45;;;;;;;;;;;13.10;99.90;;;;;;6721556;88;20115;-76
2024/03/21 09:29:46;;;;;;;;;;;13.10;99.90;;;;;;6727620;88;20066;-77
2024/03/21 09:39:46;;;;;;;;;;;13.20;99.90;;;;;;6723922;88;20050;-76
2024/03/21 09:49:47;;;;;;;;;;;13.20;99.90;;;;;;6720408;88;20202;-76
2024/03/21 09:59:48;;;;;;;;;;;12.90;99.90;;;;;;6622571;88;20124;-77
2024/03/21 10:09:51;;;;;;;;;;;12.70;99.90;;;;;;6618065;89;20155;-75
2024/03/21 10:19:52;;;;;;;;;;;12.70;99.90;;;;;;6616898;88;20080;-75
2024/03/21 10:29:55;;;;;;;;;;;12.90;99.90;;;;;;6616059;89;20497;-76
2024/03/21 10:39:55;;;;;;;;;;;12.70;99.90;;;;;;6614554;88;20066;-78
2024/03/21 10:49:55;;;;;;;;;;;12.90;99.90;;;;;;6614814;88;20146;-76
2024/03/21 10:59:57;;;;;;;;;;;13.50;99.90;;;;;;6614580;88;20148;-75
2024/03/21 11:09:57;;;;;;;;;;;13.70;99.90;;;;;;6614476;89;20062;-75
2024/03/21 11:20:05;;;;;;;;;;;13.80;99.90;;;;;;6613477;88;20074;-77
2024/03/21 11:30:08;;;;;;;;;;;14.80;99.90;;;;;;6613881;89;20062;-77
2024/03/21 11:40:11;;;;;;;;;;;15.10;99.90;;;;;;6614801;89;20062;-78
2024/03/21 11:50:11;;;;;;;;;;;15.60;99.90;;;;;;6621781;89;20051;-76
2024/03/21 12:00:12;;;;;;;;;;;16.90;99.90;;;;;;6613849;88;20078;-75
2024/03/21 12:10:13;;;;;;;;;;;17.20;99.90;;;;;;6612389;89;20134;-77
2024/03/21 12:20:13;;;;;;;;;;;15.90;99.90;;;;;;6611834;88;20529;-75
2024/03/21 12:30:14;;;;;;;;;;;16.40;99.90;;;;;;6612113;88;20362;-76
2024/03/21 12:40:14;;;;;;;;;;;16.50;99.90;;;;;;6622051;88;20690;-77
2024/03/21 13:00:18;;;;;;;;;;;17.20;99.90;;;;;;6662715;88;20103;-80
2024/03/21 13:10:19;;;;;;;;;;;16.90;99.90;;;;;;6636925;88;20454;-80
2024/03/21 13:20:20;;;;;;;;;;;16.70;99.90;;;;;;6659150;88;20084;-79
2024/03/21 13:30:21;;;;;;;;;;;16.70;99.90;;;;;;6654634;88;20051;-79
2024/03/21 13:40:21;;;;;;;;;;;17.60;99.90;;;;;;6657214;88;20084;-79
2024/03/21 13:50:22;;;;;;;;;;;17.50;99.90;;;;;;6662378;88;20055;-79
2024/03/21 14:00:28;;;;;;;;;;;17.90;99.90;;;;;;6651272;88;20106;-80
2024/03/21 14:10:29;;;;;;;;;;;17.90;99.90;;;;;;6636363;88;20058;-80
2024/03/21 14:20:30;;;;;;;;;;;17.90;99.90;;;;;;6658727;88;20048;-80
2024/03/21 14:30:30;;;;;;;;;;;17.40;99.90;;;;;;6647648;88;20560;-80
2024/03/21 14:40:31;;;;;;;;;;;16.80;99.90;;;;;;6663191;88;20058;-79
2024/03/21 14:50:33;;;;;;;;;;;16.70;99.90;;;;;;6642864;88;20066;-80
2024/03/21 15:00:33;;;;;;;;;;;16.40;99.90;;;;;;6636708;88;20063;-80
2024/03/21 15:10:34;;;;;;;;;;;16.30;99.90;;;;;;6643900;88;20067;-79
2024/03/21 15:20:35;;;;;;;;;;;15.90;99.90;;;;;;6639258;88;20164;-79
2024/03/21 15:30:35;;;;;;;;;;;15.80;99.90;;;;;;6659891;88;20059;-79
2024/03/21 15:40:36;;;;;;;;;;;15.40;99.90;;;;;;6642369;88;20081;-80
2024/03/21 15:50:36;;;;;;;;;;;15.20;99.90;;;;;;6657815;88;20080;-79
2024/03/21 16:00:37;;;;;;;;;;;15.20;99.90;;;;;;6641527;88;20062;-78
2024/03/21 16:10:37;;;;;;;;;;;14.90;99.90;;;;;;6643820;88;20223;-80
2024/03/21 16:20:37;;;;;;;;;;;14.80;99.90;;;;;;6659625;88;20660;-79
2024/03/21 16:30:39;;;;;;;;;;;14.60;99.90;;;;;;6655577;88;20208;-81
2024/03/21 16:40:39;;;;;;;;;;;14.80;99.90;;;;;;6621337;89;20074;-79
2024/03/21 16:50:40;;;;;;;;;;;14.50;99.90;;;;;;6645890;89;20054;-80
2024/03/21 17:00:40;;;;;;;;;;;14.30;99.90;;;;;;6621934;89;20066;-80
2024/03/21 17:10:41;;;;;;;;;;;14.10;99.90;;;;;;6626997;89;20062;-80
2024/03/21 17:20:41;;;;;;;;;;;13.90;99.90;;;;;;6623678;89;20079;-80
2024/03/21 17:30:42;;;;;;;;;;;13.80;99.90;;;;;;6649737;88;20058;-79
2024/03/21 17:40:42;;;;;;;;;;;13.60;99.90;;;;;;6641747;88;20111;-79
2024/03/21 17:50:46;;;;;;;;;;;13.40;99.90;;;;;;6641083;88;20092;-80
2024/03/21 18:00:47;;;;;;;;;;;13.30;99.90;;;;;;6651868;88;20074;-81
2024/03/21 18:10:49;;;;;;;;;;;13.20;99.90;;;;;;6645214;88;20527;-80
2024/03/21 18:20:49;;;;;;;;;;;13.10;99.90;;;;;;6652112;88;20059;-78
2024/03/21 18:30:50;;;;;;;;;;;13.00;99.90;;;;;;6645648;88;20077;-79
2024/03/21 18:40:50;;;;;;;;;;;13.00;99.90;;;;;;6642967;89;20074;-79
2024/03/21 19:00:54;;;;;;;;;;;12.50;99.90;;;;;;6722459;88;20108;-76
2024/03/21 19:10:55;;;;;;;;;;;12.40;99.90;;;;;;6713369;88;20136;-76
2024/03/21 19:20:55;;;;;;;;;;;12.40;99.90;;;;;;6713786;88;20062;-76
2024/03/21 19:30:56;;;;;;;;;;;12.40;99.90;;;;;;6716738;88;20140;-75
2024/03/21 19:40:56;;;;;;;;;;;12.30;99.90;;;;;;6721078;88;20070;-76
2024/03/21 19:50:56;;;;;;;;;;;12.30;99.90;;;;;;6718543;88;20152;-76
2024/03/21 20:00:58;;;;;;;;;;;12.20;99.90;;;;;;6717311;88;20506;-77
2024/03/21 20:10:59;;;;;;;;;;;12.10;99.90;;;;;;6719672;88;20456;-76
2024/03/21 20:21:05;;;;;;;;;;;12.10;99.90;;;;;;6717583;88;20075;-76
2024/03/21 20:31:05;;;;;;;;;;;12.00;99.90;;;;;;6716134;88;20873;-77
2024/03/21 20:41:07;;;;;;;;;;;11.80;99.90;;;;;;6715118;88;20172;-76
2024/03/21 20:51:11;;;;;;;;;;;11.60;99.90;;;;;;6716397;88;20069;-76
2024/03/21 21:01:13;;;;;;;;;;;11.40;99.90;;;;;;6733977;88;20083;-77
2024/03/21 21:11:13;;;;;;;;;;;11.40;99.90;;;;;;6726249;88;20190;-76
2024/03/21 21:21:14;;;;;;;;;;;11.00;99.90;;;;;;6714468;88;20124;-76
2024/03/21 21:31:14;;;;;;;;;;;10.80;99.90;;;;;;6718131;88;20619;-76
2024/03/21 21:41:15;;;;;;;;;;;10.70;99.90;;;;;;6717347;88;20090;-76
2024/03/21 21:51:15;;;;;;;;;;;10.90;99.90;;;;;;6711014;88;20107;-76
2024/03/21 22:01:16;;;;;;;;;;;10.90;99.90;;;;;;6721243;88;20059;-76
2024/03/21 22:11:18;;;;;;;;;;;10.90;99.90;;;;;;6716255;88;20106;-76
2024/03/21 22:21:19;;;;;;;;;;;10.80;99.90;;;;;;6717426;88;20646;-77
2024/03/21 22:31:19;;;;;;;;;;;10.60;99.90;;;;;;6720305;88;20106;-77
2024/03/21 22:41:20;;;;;;;;;;;10.40;99.90;;;;;;6735789;88;20176;-77
2024/03/21 22:51:20;;;;;;;;;;;10.50;99.90;;;;;;6738357;88;20692;-76
2024/03/21 23:01:21;;;;;;;;;;;10.50;99.90;;;;;;6738615;88;20152;-76
2024/03/21 23:11:21;;;;;;;;;;;10.50;99.90;;;;;;6729452;88;20096;-77
2024/03/21 23:21:22;;;;;;;;;;;10.50;99.90;;;;;;6724437;88;20615;-76
2024/03/21 23:31:22;;;;;;;;;;;10.60;99.90;;;;;;6738686;88;20080;-76
2024/03/21 23:41:23;;;;;;;;;;;10.60;99.90;;;;;;6737726;88;20105;-76
2024/03/21 23:51:23;;;;;;;;;;;10.70;99.90;;;;;;6737149;88;20058;-76
